Pyatt, Arkansas
Current Conditions -  °F | °C
As of 10:15 PM on Wednesday 26 Nov 2014 (Local Time) from KFLP Reporting Station
Clear Clear  
Wind Chill: 32°   Ceiling: Unl
Heat Index: 39°   Visibility: 10mi
Dew Point: 25°   Wind: 12mph
Humidity: 56%   Direction: 300°WNW
Pressure: 30.25"   Gusts: 22mph
Location:  36.25°N, 92.84°W
Report Text: KFLP 270415Z AUTO 30010G19KT 10SM CLR 04/M04 A3025 RMK AO1
Loading
Personal Weather Stations






























Interactive Weather Map New forecast layout! Learn more

10-Day Weather Forecast

Advertisements
Track Severe Weather on mobile